createdAt,value
2017-08-30T00:00:53.468Z,0.00
2017-08-30T00:01:53.260Z,0.00
2017-08-30T00:02:53.296Z,0.00
2017-08-30T00:03:53.319Z,0.00
2017-08-30T00:04:53.375Z,0.00
2017-08-30T00:05:53.413Z,0.00
2017-08-30T00:06:53.451Z,0.00
2017-08-30T00:07:53.741Z,0.00
2017-08-30T00:08:53.530Z,0.00
2017-08-30T00:09:53.550Z,0.00
2017-08-30T00:10:53.614Z,0.00
2017-08-30T00:11:53.657Z,0.00
2017-08-30T00:12:53.689Z,0.00
2017-08-30T00:13:53.713Z,0.00
2017-08-30T00:14:54.088Z,0.00
2017-08-30T00:15:53.802Z,0.00
2017-08-30T00:16:53.841Z,0.00
2017-08-30T00:17:53.889Z,0.00
2017-08-30T00:18:53.919Z,0.00
2017-08-30T00:19:53.943Z,0.00
2017-08-30T00:20:53.980Z,0.00
2017-08-30T00:21:54.336Z,0.00
2017-08-30T00:22:54.090Z,0.00
2017-08-30T00:23:54.121Z,0.00
2017-08-30T00:24:54.145Z,0.00
2017-08-30T00:25:54.208Z,0.00
2017-08-30T00:26:54.214Z,0.00
2017-08-30T00:27:54.278Z,0.00
2017-08-30T00:28:54.567Z,0.00
2017-08-30T00:29:54.387Z,0.00
2017-08-30T00:30:54.377Z,0.00
2017-08-30T00:31:54.408Z,0.00
2017-08-30T00:32:54.447Z,0.00
2017-08-30T00:33:54.487Z,0.00
2017-08-30T00:34:54.574Z,0.00
2017-08-30T00:35:54.836Z,0.00
2017-08-30T00:36:54.621Z,0.00
2017-08-30T00:37:54.658Z,0.00
2017-08-30T00:38:54.681Z,0.00
2017-08-30T00:39:54.718Z,0.00
2017-08-30T00:40:54.777Z,0.00
2017-08-30T00:41:54.812Z,0.00
2017-08-30T00:42:55.103Z,0.00
2017-08-30T00:43:54.881Z,0.00
2017-08-30T00:44:54.950Z,0.00
2017-08-30T00:45:54.983Z,0.00
2017-08-30T00:46:54.990Z,0.00
2017-08-30T00:47:55.029Z,0.00
2017-08-30T00:48:55.086Z,0.00
2017-08-30T00:49:55.391Z,0.00
2017-08-30T00:50:55.313Z,0.00
2017-08-30T00:51:55.206Z,0.00
2017-08-30T00:52:55.240Z,0.00
2017-08-30T00:53:55.330Z,0.00
2017-08-30T00:54:55.317Z,0.00
2017-08-30T00:55:55.380Z,0.00
2017-08-30T00:56:55.696Z,0.00
2017-08-30T00:57:55.441Z,0.00
2017-08-30T00:58:55.456Z,0.00
2017-08-30T00:59:55.511Z,0.00
2017-08-30T01:00:55.550Z,0.00
2017-08-30T01:01:55.571Z,0.00
2017-08-30T01:02:55.610Z,0.00
2017-08-30T01:03:55.953Z,0.00
2017-08-30T01:04:55.711Z,0.00
2017-08-30T01:05:55.747Z,0.00
2017-08-30T01:06:55.786Z,0.00
2017-08-30T01:07:55.960Z,0.00
2017-08-30T01:08:55.845Z,0.00
2017-08-30T01:09:55.880Z,0.00
2017-08-30T01:10:56.222Z,0.00
2017-08-30T01:11:55.975Z,0.00
2017-08-30T01:12:56.000Z,0.00
2017-08-30T01:13:56.051Z,0.00
2017-08-30T01:14:56.094Z,0.00
2017-08-30T01:15:56.135Z,0.00
2017-08-30T01:16:56.219Z,0.00
2017-08-30T01:17:56.440Z,0.00
2017-08-30T01:18:56.233Z,0.00
2017-08-30T01:19:56.284Z,0.00
2017-08-30T01:20:56.306Z,0.00
2017-08-30T01:21:56.344Z,0.00
2017-08-30T01:22:56.410Z,0.00
2017-08-30T01:23:56.440Z,0.00
2017-08-30T01:24:56.797Z,0.00
2017-08-30T01:25:56.520Z,0.00
2017-08-30T01:26:56.652Z,0.00
2017-08-30T01:27:56.599Z,0.00
2017-08-30T01:28:56.616Z,0.00
2017-08-30T01:29:56.704Z,0.00
2017-08-30T01:30:56.969Z,0.00
2017-08-30T01:31:56.735Z,0.00
2017-08-30T01:32:56.788Z,0.00
2017-08-30T01:33:56.807Z,0.00
2017-08-30T01:34:56.851Z,0.00
2017-08-30T01:35:56.891Z,0.00
2017-08-30T01:36:57.242Z,0.00
2017-08-30T01:37:56.979Z,0.00
2017-08-30T01:38:57.021Z,0.00
2017-08-30T01:39:57.046Z,0.00
2017-08-30T01:40:57.102Z,0.00
2017-08-30T01:41:57.144Z,0.00
2017-08-30T01:42:57.475Z,0.00
2017-08-30T01:43:57.214Z,0.00
2017-08-30T01:44:57.234Z,0.00
2017-08-30T01:45:57.291Z,0.00
2017-08-30T01:46:57.332Z,0.00
2017-08-30T01:47:57.354Z,0.00
2017-08-30T01:48:57.659Z,0.00
2017-08-30T01:49:57.433Z,0.00
2017-08-30T01:50:57.484Z,0.00
2017-08-30T01:51:57.507Z,0.00
2017-08-30T01:52:57.564Z,0.00
2017-08-30T01:53:57.642Z,0.00
2017-08-30T01:54:57.872Z,0.00
2017-08-30T01:55:57.675Z,0.00
2017-08-30T01:56:57.716Z,0.00
2017-08-30T01:57:57.740Z,0.00
2017-08-30T01:58:57.777Z,0.00
2017-08-30T01:59:57.832Z,0.00
2017-08-30T02:00:58.155Z,0.00
2017-08-30T02:01:58.006Z,0.00
2017-08-30T02:02:57.991Z,0.00
2017-08-30T02:03:57.990Z,0.00
2017-08-30T02:04:58.004Z,0.00
2017-08-30T02:05:58.043Z,0.00
2017-08-30T02:06:58.332Z,0.00
2017-08-30T02:07:58.125Z,0.00
2017-08-30T02:08:58.183Z,0.00
2017-08-30T02:09:58.215Z,0.00
2017-08-30T02:10:58.239Z,0.00
2017-08-30T02:11:58.293Z,0.00
2017-08-30T02:12:58.563Z,0.00
2017-08-30T02:13:58.364Z,0.00
2017-08-30T02:14:58.438Z,0.00
2017-08-30T02:15:58.433Z,0.00
2017-08-30T02:16:58.544Z,0.00
2017-08-30T02:17:58.530Z,0.00
2017-08-30T02:18:58.561Z,0.00
2017-08-30T02:19:58.585Z,0.00
2017-08-30T02:20:58.622Z,0.00
2017-08-30T02:21:58.670Z,0.00
2017-08-30T02:22:58.804Z,0.00
2017-08-30T02:23:58.739Z,0.00
2017-08-30T02:24:59.133Z,0.00
2017-08-30T02:25:58.822Z,0.00
2017-08-30T02:26:58.881Z,0.00
2017-08-30T02:27:59.080Z,0.00
2017-08-30T02:28:58.937Z,0.00
2017-08-30T02:29:58.970Z,0.00
2017-08-30T02:30:59.329Z,0.00
2017-08-30T02:31:59.046Z,0.00
2017-08-30T02:32:59.183Z,0.00
2017-08-30T02:33:59.143Z,0.00
2017-08-30T02:34:59.182Z,0.00
2017-08-30T02:35:59.234Z,0.00
2017-08-30T02:36:59.505Z,0.00
2017-08-30T02:37:59.294Z,0.00
2017-08-30T02:38:59.337Z,0.00
2017-08-30T02:39:59.355Z,0.00
2017-08-30T02:40:59.411Z,0.00
2017-08-30T02:41:59.453Z,0.00
2017-08-30T02:42:59.796Z,0.00
2017-08-30T02:43:59.567Z,0.00
2017-08-30T02:44:59.566Z,0.00
2017-08-30T02:45:59.589Z,0.00
2017-08-30T02:46:59.626Z,0.00
2017-08-30T02:47:59.678Z,0.00
2017-08-30T02:49:00.053Z,0.00
2017-08-30T02:49:59.751Z,0.00
2017-08-30T02:50:59.779Z,0.00
2017-08-30T02:51:59.839Z,0.00
2017-08-30T02:52:59.851Z,0.00
2017-08-30T02:53:59.913Z,0.00
2017-08-30T02:55:00.247Z,0.00
2017-08-30T02:55:59.986Z,0.00
2017-08-30T02:57:00.021Z,0.00
2017-08-30T02:58:00.061Z,0.00
2017-08-30T02:59:00.186Z,0.00
2017-08-30T03:00:00.141Z,0.00
2017-08-30T03:01:00.208Z,0.00
2017-08-30T03:02:00.465Z,0.00
2017-08-30T03:03:00.253Z,0.00
2017-08-30T03:04:00.313Z,0.00
2017-08-30T03:05:00.337Z,0.00
2017-08-30T03:06:00.352Z,0.00
2017-08-30T03:07:00.420Z,0.00
2017-08-30T03:08:00.449Z,0.00
2017-08-30T03:09:00.734Z,0.00
2017-08-30T03:10:00.506Z,0.00
2017-08-30T03:11:00.558Z,0.00
2017-08-30T03:12:00.623Z,0.00
2017-08-30T03:13:00.637Z,0.00
2017-08-30T03:14:00.676Z,0.00
2017-08-30T03:15:00.717Z,0.00
2017-08-30T03:16:01.009Z,0.00
2017-08-30T03:17:00.771Z,0.00
2017-08-30T03:18:00.833Z,0.00
2017-08-30T03:19:00.852Z,0.00
2017-08-30T03:20:00.921Z,0.00
2017-08-30T03:21:00.951Z,0.00
2017-08-30T03:22:00.964Z,0.00
2017-08-30T03:23:01.265Z,0.00
2017-08-30T03:24:01.041Z,0.00
2017-08-30T03:25:01.186Z,0.00
2017-08-30T03:26:01.119Z,0.00
2017-08-30T03:27:01.157Z,0.00
2017-08-30T03:28:01.194Z,0.00
2017-08-30T03:29:01.230Z,0.00
2017-08-30T03:30:01.600Z,0.00
2017-08-30T03:31:01.336Z,0.00
2017-08-30T03:32:01.347Z,0.00
2017-08-30T03:33:01.408Z,0.00
2017-08-30T03:34:01.427Z,0.00
2017-08-30T03:35:01.499Z,0.00
2017-08-30T03:36:01.524Z,0.00
2017-08-30T03:37:01.800Z,0.00
2017-08-30T03:38:01.580Z,0.00
2017-08-30T03:39:01.635Z,0.00
2017-08-30T03:40:01.652Z,0.00
2017-08-30T03:41:01.691Z,0.00
2017-08-30T03:42:01.746Z,0.00
2017-08-30T03:43:01.768Z,0.00
2017-08-30T03:44:02.056Z,0.00
2017-08-30T03:45:01.861Z,0.00
2017-08-30T03:46:02.002Z,0.00
2017-08-30T03:47:01.932Z,0.00
2017-08-30T03:48:01.960Z,0.00
2017-08-30T03:49:01.998Z,0.00
2017-08-30T03:50:02.054Z,0.00
2017-08-30T03:51:02.381Z,0.00
2017-08-30T03:52:02.130Z,0.00
2017-08-30T03:53:02.192Z,0.00
2017-08-30T03:54:02.197Z,0.00
2017-08-30T03:55:02.243Z,0.00
2017-08-30T03:56:02.287Z,0.00
2017-08-30T03:57:02.342Z,0.00
2017-08-30T03:58:02.660Z,0.00
2017-08-30T03:59:02.413Z,0.00
2017-08-30T04:00:02.437Z,0.00
2017-08-30T04:01:02.457Z,0.00
2017-08-30T04:02:02.498Z,0.00
2017-08-30T04:03:02.551Z,0.00
2017-08-30T04:04:02.594Z,0.00
2017-08-30T04:05:02.883Z,0.00
2017-08-30T04:06:02.667Z,0.00
2017-08-30T04:07:02.793Z,0.00
2017-08-30T04:08:02.739Z,0.00
2017-08-30T04:09:02.770Z,0.00
2017-08-30T04:10:02.863Z,0.00
2017-08-30T04:11:02.856Z,0.00
2017-08-30T04:12:03.177Z,0.00
2017-08-30T04:13:02.915Z,0.00
2017-08-30T04:14:02.968Z,0.00
2017-08-30T04:15:02.991Z,0.00
2017-08-30T04:16:03.054Z,0.00
2017-08-30T04:17:03.070Z,0.00
2017-08-30T04:18:03.136Z,0.00
2017-08-30T04:19:03.514Z,0.00
2017-08-30T04:20:03.184Z,0.00
2017-08-30T04:21:03.218Z,0.00
2017-08-30T04:22:03.269Z,0.00
2017-08-30T04:23:03.320Z,0.00
2017-08-30T04:24:03.341Z,0.00
2017-08-30T04:25:03.382Z,0.00
2017-08-30T04:26:03.662Z,0.00
2017-08-30T04:27:03.449Z,0.00
2017-08-30T04:28:03.502Z,0.00
2017-08-30T04:29:03.542Z,0.00
2017-08-30T04:30:03.569Z,0.00
2017-08-30T04:31:03.617Z,0.00
2017-08-30T04:32:03.908Z,0.00
2017-08-30T04:33:03.699Z,0.00
2017-08-30T04:34:03.713Z,0.00
2017-08-30T04:35:03.755Z,0.00
2017-08-30T04:36:03.791Z,0.00
2017-08-30T04:37:03.830Z,0.00
2017-08-30T04:38:04.118Z,0.00
2017-08-30T04:39:03.922Z,0.00
2017-08-30T04:40:03.961Z,0.00
2017-08-30T04:41:03.981Z,0.00
2017-08-30T04:42:04.021Z,0.00
2017-08-30T04:43:04.062Z,0.00
2017-08-30T04:44:04.406Z,0.00
2017-08-30T04:45:04.173Z,0.00
2017-08-30T04:46:04.190Z,0.00
2017-08-30T04:47:04.231Z,0.00
2017-08-30T04:48:04.254Z,0.00
2017-08-30T04:49:04.340Z,0.00
2017-08-30T04:50:04.594Z,0.00
2017-08-30T04:51:04.381Z,0.00
2017-08-30T04:52:04.421Z,0.00
2017-08-30T04:53:04.437Z,0.00
2017-08-30T04:54:04.497Z,0.00
2017-08-30T04:55:04.581Z,5.63
2017-08-30T04:56:04.813Z,5.63
2017-08-30T04:57:04.590Z,5.63
2017-08-30T04:58:04.649Z,5.63
2017-08-30T04:59:04.686Z,5.63
2017-08-30T05:00:04.870Z,5.63
2017-08-30T05:01:04.743Z,5.63
2017-08-30T05:02:05.084Z,5.63
2017-08-30T05:03:04.839Z,5.63
2017-08-30T05:04:04.859Z,5.63
2017-08-30T05:05:04.911Z,5.63
2017-08-30T05:06:04.934Z,5.63
2017-08-30T05:07:04.989Z,5.63
2017-08-30T05:08:05.311Z,5.63
2017-08-30T05:09:05.380Z,5.63
2017-08-30T05:10:05.088Z,5.63
2017-08-30T05:11:05.154Z,5.63
2017-08-30T05:12:05.171Z,11.25
2017-08-30T05:13:05.451Z,11.25
2017-08-30T05:14:05.511Z,11.25
2017-08-30T05:15:05.296Z,11.25
2017-08-30T05:16:05.318Z,11.25
2017-08-30T05:17:05.366Z,11.25
2017-08-30T05:18:05.394Z,11.25
2017-08-30T05:19:05.431Z,11.25
2017-08-30T05:20:05.735Z,11.25
2017-08-30T05:21:05.529Z,11.25
2017-08-30T05:22:05.557Z,16.88
2017-08-30T05:23:05.636Z,16.88
2017-08-30T05:24:05.673Z,16.88
2017-08-30T05:25:05.660Z,16.88
2017-08-30T05:26:05.966Z,16.88
2017-08-30T05:27:05.751Z,16.88
2017-08-30T05:28:05.771Z,16.88
2017-08-30T05:29:05.818Z,16.88
2017-08-30T05:30:05.902Z,16.88
2017-08-30T05:31:05.893Z,22.50
2017-08-30T05:32:06.177Z,22.50
2017-08-30T05:33:05.981Z,22.50
2017-08-30T05:34:06.019Z,22.50
2017-08-30T05:35:06.040Z,22.50
2017-08-30T05:36:06.094Z,22.50
2017-08-30T05:37:06.119Z,22.50
2017-08-30T05:38:06.409Z,22.50
2017-08-30T05:39:06.213Z,22.50
2017-08-30T05:40:06.232Z,22.50
2017-08-30T05:41:06.287Z,22.50
2017-08-30T05:42:06.365Z,22.50
2017-08-30T05:43:06.368Z,22.50
2017-08-30T05:44:06.652Z,28.13
2017-08-30T05:45:06.427Z,28.13
2017-08-30T05:46:06.476Z,28.13
2017-08-30T05:47:06.517Z,28.13
2017-08-30T05:48:06.564Z,28.13
2017-08-30T05:49:06.573Z,28.13
2017-08-30T05:50:06.862Z,33.75
2017-08-30T05:51:06.938Z,33.75
2017-08-30T05:52:06.689Z,33.75
2017-08-30T05:53:06.728Z,33.75
2017-08-30T05:54:06.770Z,33.75
2017-08-30T05:55:06.825Z,39.38
2017-08-30T05:56:06.860Z,39.38
2017-08-30T05:57:07.131Z,39.38
2017-08-30T05:58:06.936Z,45.00
2017-08-30T05:59:06.957Z,45.00
2017-08-30T06:00:07.003Z,45.00
2017-08-30T06:01:07.072Z,45.00
2017-08-30T06:02:07.289Z,45.00
2017-08-30T06:03:07.144Z,45.00
2017-08-30T06:04:07.399Z,50.63
2017-08-30T06:05:07.202Z,50.63
2017-08-30T06:06:07.225Z,50.63
2017-08-30T06:07:07.263Z,56.25
2017-08-30T06:08:07.427Z,56.25
2017-08-30T06:09:07.344Z,56.25
2017-08-30T06:10:07.404Z,56.25
2017-08-30T06:11:07.688Z,61.88
2017-08-30T06:12:07.458Z,61.88
2017-08-30T06:13:07.512Z,61.88
2017-08-30T06:14:07.555Z,61.88
2017-08-30T06:15:07.573Z,61.88
2017-08-30T06:16:07.610Z,61.88
2017-08-30T06:17:07.650Z,61.88
2017-08-30T06:18:07.704Z,67.50
2017-08-30T06:19:07.730Z,67.50
2017-08-30T06:20:07.766Z,67.50
2017-08-30T06:21:07.804Z,67.50
2017-08-30T06:22:07.941Z,67.50
2017-08-30T06:23:07.903Z,67.50
2017-08-30T06:24:08.196Z,67.50
2017-08-30T06:25:07.959Z,67.50
2017-08-30T06:26:08.005Z,73.13
2017-08-30T06:27:08.085Z,73.13
2017-08-30T06:28:08.098Z,73.13
2017-08-30T06:29:08.137Z,73.13
2017-08-30T06:30:08.194Z,78.75
2017-08-30T06:31:08.442Z,78.75
2017-08-30T06:32:08.227Z,78.75
2017-08-30T06:33:08.293Z,84.38
2017-08-30T06:34:08.376Z,84.38
2017-08-30T06:35:08.349Z,84.38
2017-08-30T06:36:08.434Z,90.00
2017-08-30T06:37:08.432Z,84.38
2017-08-30T06:38:08.738Z,84.38
2017-08-30T06:39:08.516Z,84.38
2017-08-30T06:40:08.556Z,78.75
2017-08-30T06:41:08.601Z,78.75
2017-08-30T06:42:08.644Z,78.75
2017-08-30T06:43:08.708Z,78.75
2017-08-30T06:44:08.728Z,78.75
2017-08-30T06:45:09.089Z,78.75
2017-08-30T06:46:08.779Z,78.75
2017-08-30T06:47:08.838Z,78.75
2017-08-30T06:48:09.253Z,78.75
2017-08-30T06:49:08.908Z,78.75
2017-08-30T06:50:08.947Z,78.75
2017-08-30T06:51:08.990Z,78.75
2017-08-30T06:52:09.278Z,78.75
2017-08-30T06:53:09.462Z,78.75
2017-08-30T06:54:09.122Z,78.75
2017-08-30T06:55:09.156Z,78.75
2017-08-30T06:56:09.205Z,84.38
2017-08-30T06:57:09.205Z,84.38
2017-08-30T06:58:09.257Z,84.38
2017-08-30T06:59:09.632Z,90.00
2017-08-30T07:00:09.340Z,90.00
2017-08-30T07:01:09.357Z,84.38
2017-08-30T07:02:09.415Z,84.38
2017-08-30T07:03:09.449Z,84.38
2017-08-30T07:04:09.477Z,73.13
2017-08-30T07:05:09.523Z,67.50
2017-08-30T07:06:09.884Z,61.88
2017-08-30T07:07:09.592Z,56.25
2017-08-30T07:08:09.633Z,61.88
2017-08-30T07:09:09.710Z,61.88
2017-08-30T07:10:09.744Z,61.88
2017-08-30T07:11:09.782Z,67.50
2017-08-30T07:12:09.823Z,73.13
2017-08-30T07:13:10.203Z,78.75
2017-08-30T07:14:09.968Z,84.38
2017-08-30T07:15:09.922Z,84.38
2017-08-30T07:16:09.965Z,78.75
2017-08-30T07:17:09.983Z,78.75
2017-08-30T07:18:10.047Z,78.75
2017-08-30T07:19:10.123Z,78.75
2017-08-30T07:20:10.406Z,84.38
2017-08-30T07:21:10.156Z,90.00
2017-08-30T07:22:10.190Z,95.63
2017-08-30T07:23:10.228Z,95.63
2017-08-30T07:24:10.260Z,101.25
2017-08-30T07:25:10.310Z,106.88
2017-08-30T07:26:10.608Z,101.25
2017-08-30T07:27:10.394Z,101.25
2017-08-30T07:28:10.422Z,101.25
2017-08-30T07:29:10.453Z,95.63
2017-08-30T07:30:10.515Z,95.63
2017-08-30T07:31:10.565Z,95.63
2017-08-30T07:32:10.894Z,95.63
2017-08-30T07:33:10.617Z,101.25
2017-08-30T07:34:10.804Z,106.88
2017-08-30T07:35:10.711Z,112.50
2017-08-30T07:36:10.769Z,118.13
2017-08-30T07:37:10.770Z,118.13
2017-08-30T07:38:10.808Z,118.13
2017-08-30T07:39:10.859Z,118.13
2017-08-30T07:40:10.896Z,118.13
2017-08-30T07:41:10.948Z,118.13
2017-08-30T07:42:10.982Z,118.13
2017-08-30T07:43:11.045Z,118.13
2017-08-30T07:44:11.328Z,112.50
2017-08-30T07:45:11.105Z,101.25
2017-08-30T07:46:11.131Z,95.63
2017-08-30T07:47:11.171Z,90.00
2017-08-30T07:48:11.411Z,84.38
2017-08-30T07:49:11.246Z,84.38
2017-08-30T07:50:11.624Z,78.75
2017-08-30T07:51:11.326Z,73.13
2017-08-30T07:52:11.428Z,73.13
2017-08-30T07:53:11.424Z,73.13
2017-08-30T07:54:11.441Z,67.50
2017-08-30T07:55:11.481Z,67.50
2017-08-30T07:56:11.796Z,67.50
2017-08-30T07:57:11.579Z,61.88
2017-08-30T07:58:11.776Z,61.88
2017-08-30T07:59:11.640Z,61.88
2017-08-30T08:00:11.680Z,61.88
2017-08-30T08:01:11.735Z,61.88
2017-08-30T08:02:12.056Z,61.88
2017-08-30T08:03:11.895Z,61.88
2017-08-30T08:04:11.842Z,67.50
2017-08-30T08:05:11.917Z,67.50
2017-08-30T08:06:11.916Z,73.13
2017-08-30T08:07:11.982Z,78.75
2017-08-30T08:08:12.265Z,78.75
2017-08-30T08:09:12.052Z,78.75
2017-08-30T08:10:12.094Z,78.75
2017-08-30T08:11:12.128Z,78.75
2017-08-30T08:12:12.212Z,78.75
2017-08-30T08:13:12.199Z,73.13
2017-08-30T08:14:12.555Z,73.13
2017-08-30T08:15:12.290Z,73.13
2017-08-30T08:16:12.325Z,67.50
2017-08-30T08:17:12.366Z,67.50
2017-08-30T08:18:12.458Z,61.88
2017-08-30T08:19:12.432Z,61.88
2017-08-30T08:20:12.744Z,61.88
2017-08-30T08:21:12.542Z,61.88
2017-08-30T08:22:12.563Z,50.63
2017-08-30T08:23:12.617Z,45.00
2017-08-30T08:24:12.944Z,45.00
2017-08-30T08:25:12.686Z,50.63
2017-08-30T08:26:13.048Z,50.63
2017-08-30T08:27:12.755Z,56.25
2017-08-30T08:28:12.812Z,61.88
2017-08-30T08:29:12.840Z,67.50
2017-08-30T08:30:12.895Z,73.13
2017-08-30T08:31:12.907Z,78.75
2017-08-30T08:32:13.246Z,84.38
2017-08-30T08:33:12.977Z,78.75
2017-08-30T08:34:13.037Z,73.13
2017-08-30T08:35:13.092Z,67.50
2017-08-30T08:36:13.104Z,61.88
2017-08-30T08:37:13.138Z,56.25
2017-08-30T08:38:13.482Z,56.25
2017-08-30T08:39:13.238Z,50.63
2017-08-30T08:40:13.276Z,50.63
2017-08-30T08:41:13.296Z,50.63
2017-08-30T08:42:13.368Z,50.63
2017-08-30T08:43:13.377Z,50.63
2017-08-30T08:44:13.725Z,56.25
2017-08-30T08:45:13.454Z,61.88
2017-08-30T08:46:13.496Z,67.50
2017-08-30T08:47:13.662Z,73.13
2017-08-30T08:48:13.591Z,84.38
2017-08-30T08:49:13.685Z,90.00
2017-08-30T08:50:13.654Z,90.00
2017-08-30T08:51:14.000Z,90.00
2017-08-30T08:52:13.738Z,101.25
2017-08-30T08:53:13.812Z,106.88
2017-08-30T08:54:13.831Z,118.13
2017-08-30T08:55:13.968Z,140.63
2017-08-30T08:56:13.950Z,163.13
2017-08-30T08:57:13.929Z,174.38
2017-08-30T08:58:14.016Z,174.38
2017-08-30T08:59:14.025Z,168.75
2017-08-30T09:00:14.048Z,157.50
2017-08-30T09:01:14.106Z,151.88
2017-08-30T09:02:14.140Z,157.50
2017-08-30T09:03:14.166Z,163.13
2017-08-30T09:04:14.555Z,168.75
2017-08-30T09:05:14.276Z,168.75
2017-08-30T09:06:14.282Z,168.75
2017-08-30T09:07:14.349Z,157.50
2017-08-30T09:08:14.384Z,146.25
2017-08-30T09:09:14.412Z,135.00
2017-08-30T09:10:14.570Z,123.75
2017-08-30T09:11:14.752Z,118.13
2017-08-30T09:12:14.544Z,118.13
2017-08-30T09:13:14.587Z,118.13
2017-08-30T09:14:14.620Z,123.75
2017-08-30T09:15:14.652Z,129.38
2017-08-30T09:16:14.701Z,135.00
2017-08-30T09:17:14.731Z,140.63
2017-08-30T09:18:15.180Z,146.25
2017-08-30T09:19:14.832Z,151.88
2017-08-30T09:20:14.848Z,157.50
2017-08-30T09:21:14.894Z,174.38
2017-08-30T09:22:14.924Z,185.63
2017-08-30T09:23:15.032Z,196.88
2017-08-30T09:24:15.011Z,196.88
2017-08-30T09:25:15.357Z,191.25
2017-08-30T09:26:15.106Z,185.63
2017-08-30T09:27:15.124Z,185.63
2017-08-30T09:28:15.157Z,196.88
2017-08-30T09:29:15.518Z,213.75
2017-08-30T09:30:15.291Z,225.00
2017-08-30T09:31:15.284Z,225.00
2017-08-30T09:32:15.576Z,219.38
2017-08-30T09:33:15.368Z,219.38
2017-08-30T09:34:15.420Z,213.75
2017-08-30T09:35:15.467Z,208.13
2017-08-30T09:36:15.506Z,202.50
2017-08-30T09:37:15.529Z,185.63
2017-08-30T09:38:15.602Z,168.75
2017-08-30T09:39:15.603Z,157.50
2017-08-30T09:40:15.901Z,163.13
2017-08-30T09:41:15.723Z,180.00
2017-08-30T09:42:15.752Z,191.25
2017-08-30T09:43:15.777Z,191.25
2017-08-30T09:44:15.825Z,185.63
2017-08-30T09:45:16.113Z,180.00
2017-08-30T09:46:15.998Z,174.38
2017-08-30T09:47:15.938Z,174.38
2017-08-30T09:48:15.974Z,168.75
2017-08-30T09:49:16.021Z,163.13
2017-08-30T09:50:16.063Z,163.13
2017-08-30T09:51:16.105Z,163.13
2017-08-30T09:52:16.195Z,163.13
2017-08-30T09:53:16.183Z,157.50
2017-08-30T09:54:16.203Z,157.50
2017-08-30T09:55:16.364Z,163.13
2017-08-30T09:56:16.310Z,168.75
2017-08-30T09:57:16.343Z,168.75
2017-08-30T09:58:16.701Z,174.38
2017-08-30T09:59:16.405Z,174.38
2017-08-30T10:00:16.459Z,174.38
2017-08-30T10:01:16.594Z,180.00
2017-08-30T10:02:16.530Z,185.63
2017-08-30T10:03:16.581Z,185.63
2017-08-30T10:04:16.612Z,180.00
2017-08-30T10:05:16.947Z,168.75
2017-08-30T10:06:16.710Z,151.88
2017-08-30T10:07:16.735Z,140.63
2017-08-30T10:08:16.822Z,135.00
2017-08-30T10:09:16.832Z,135.00
2017-08-30T10:10:16.872Z,135.00
2017-08-30T10:11:16.896Z,140.63
2017-08-30T10:12:17.196Z,146.25
2017-08-30T10:13:17.001Z,151.88
2017-08-30T10:14:17.013Z,157.50
2017-08-30T10:15:17.323Z,157.50
2017-08-30T10:16:17.111Z,168.75
2017-08-30T10:17:17.147Z,174.38
2017-08-30T10:18:17.531Z,180.00
2017-08-30T10:19:17.248Z,185.63
2017-08-30T10:20:17.282Z,191.25
2017-08-30T10:21:17.312Z,191.25
2017-08-30T10:22:17.376Z,196.88
2017-08-30T10:23:17.423Z,202.50
2017-08-30T10:24:17.925Z,208.13
2017-08-30T10:25:17.452Z,219.38
2017-08-30T10:26:17.510Z,225.00
2017-08-30T10:27:17.567Z,225.00
2017-08-30T10:28:17.599Z,225.00
2017-08-30T10:29:17.682Z,230.63
2017-08-30T10:30:18.021Z,230.63
2017-08-30T10:31:17.730Z,236.25
2017-08-30T10:32:17.748Z,236.25
2017-08-30T10:33:17.795Z,236.25
2017-08-30T10:34:17.818Z,236.25
2017-08-30T10:35:18.365Z,236.25
2017-08-30T10:36:18.157Z,241.88
2017-08-30T10:37:17.936Z,241.88
2017-08-30T10:38:18.000Z,241.88
2017-08-30T10:39:18.022Z,241.88
2017-08-30T10:40:18.086Z,241.88
2017-08-30T10:41:18.182Z,241.88
2017-08-30T10:42:18.420Z,236.25
2017-08-30T10:43:18.198Z,236.25
2017-08-30T10:44:18.246Z,230.63
2017-08-30T10:45:18.279Z,230.63
2017-08-30T10:46:18.329Z,230.63
2017-08-30T10:47:18.372Z,230.63
2017-08-30T10:48:18.704Z,230.63
2017-08-30T10:49:18.441Z,230.63
2017-08-30T10:50:18.486Z,225.00
2017-08-30T10:51:18.530Z,219.38
2017-08-30T10:52:18.547Z,219.38
2017-08-30T10:53:18.612Z,213.75
2017-08-30T10:54:18.930Z,208.13
2017-08-30T10:55:18.667Z,202.50
2017-08-30T10:56:18.747Z,202.50
2017-08-30T10:57:18.768Z,202.50
2017-08-30T10:58:18.810Z,202.50
2017-08-30T10:59:18.855Z,202.50
2017-08-30T11:00:19.330Z,202.50
2017-08-30T11:01:18.919Z,202.50
2017-08-30T11:02:18.980Z,202.50
2017-08-30T11:03:18.997Z,208.13
2017-08-30T11:04:19.037Z,208.13
2017-08-30T11:05:19.127Z,213.75
2017-08-30T11:06:19.436Z,213.75
2017-08-30T11:07:19.163Z,219.38
2017-08-30T11:08:19.216Z,219.38
2017-08-30T11:09:19.256Z,219.38
2017-08-30T11:10:19.279Z,219.38
2017-08-30T11:11:19.345Z,213.75
2017-08-30T11:12:19.461Z,213.75
2017-08-30T11:13:19.419Z,219.38
2017-08-30T11:14:19.477Z,225.00
2017-08-30T11:15:19.501Z,225.00
2017-08-30T11:16:19.526Z,225.00
2017-08-30T11:17:19.618Z,219.38
2017-08-30T11:18:20.123Z,219.38
2017-08-30T11:19:19.656Z,219.38
2017-08-30T11:20:19.720Z,213.75
2017-08-30T11:21:19.753Z,213.75
2017-08-30T11:22:19.766Z,213.75
2017-08-30T11:23:19.816Z,213.75
2017-08-30T11:24:20.101Z,213.75
2017-08-30T11:25:19.892Z,219.38
2017-08-30T11:26:19.951Z,225.00
2017-08-30T11:27:19.990Z,225.00
2017-08-30T11:28:20.014Z,230.63
2017-08-30T11:29:20.073Z,236.25
2017-08-30T11:30:20.414Z,236.25
2017-08-30T11:31:20.257Z,236.25
2017-08-30T11:32:20.202Z,241.88
2017-08-30T11:33:20.613Z,236.25
2017-08-30T11:34:20.290Z,241.88
2017-08-30T11:35:20.329Z,241.88
2017-08-30T11:36:20.651Z,247.50
2017-08-30T11:37:20.431Z,247.50
2017-08-30T11:38:20.460Z,253.13
2017-08-30T11:39:20.684Z,253.13
2017-08-30T11:40:20.530Z,253.13
2017-08-30T11:41:20.566Z,253.13
2017-08-30T11:42:20.892Z,264.38
2017-08-30T11:43:20.647Z,264.38
2017-08-30T11:44:20.692Z,264.38
2017-08-30T11:45:20.815Z,264.38
2017-08-30T11:46:20.752Z,264.38
2017-08-30T11:47:20.818Z,270.00
2017-08-30T11:48:20.843Z,275.63
2017-08-30T11:49:21.177Z,281.25
2017-08-30T11:50:21.016Z,286.88
2017-08-30T11:51:20.955Z,286.88
2017-08-30T11:52:21.017Z,286.88
2017-08-30T11:53:21.047Z,286.88
2017-08-30T11:54:21.078Z,286.88
2017-08-30T11:55:21.120Z,292.50
2017-08-30T11:56:21.504Z,298.13
2017-08-30T11:57:21.213Z,303.75
2017-08-30T11:58:21.272Z,309.38
2017-08-30T11:59:21.289Z,315.00
2017-08-30T12:00:21.326Z,315.00
2017-08-30T12:01:21.387Z,303.75
2017-08-30T12:02:21.430Z,303.75
2017-08-30T12:03:21.725Z,315.00
2017-08-30T12:04:21.614Z,315.00
2017-08-30T12:05:21.560Z,303.75
2017-08-30T12:06:21.598Z,298.13
2017-08-30T12:07:21.628Z,303.75
2017-08-30T12:08:21.664Z,309.38
2017-08-30T12:09:21.715Z,309.38
2017-08-30T12:10:22.059Z,309.38
2017-08-30T12:11:21.782Z,303.75
2017-08-30T12:12:21.823Z,315.00
2017-08-30T12:13:21.867Z,320.63
2017-08-30T12:14:21.924Z,309.38
2017-08-30T12:15:21.964Z,309.38
2017-08-30T12:16:22.010Z,315.00
2017-08-30T12:17:22.301Z,320.63
2017-08-30T12:18:22.080Z,320.63
2017-08-30T12:19:22.170Z,286.88
2017-08-30T12:20:22.179Z,253.13
2017-08-30T12:21:22.227Z,230.63
2017-08-30T12:22:22.242Z,225.00
2017-08-30T12:23:22.312Z,219.38
2017-08-30T12:24:22.638Z,213.75
2017-08-30T12:25:22.619Z,208.13
2017-08-30T12:26:22.418Z,185.63
2017-08-30T12:27:22.464Z,163.13
2017-08-30T12:28:22.489Z,151.88
2017-08-30T12:29:22.539Z,140.63
2017-08-30T12:30:22.575Z,129.38
2017-08-30T12:31:22.935Z,118.13
2017-08-30T12:32:22.652Z,112.50
2017-08-30T12:33:22.736Z,112.50
2017-08-30T12:34:22.737Z,118.13
2017-08-30T12:35:22.781Z,118.13
2017-08-30T12:36:22.820Z,118.13
2017-08-30T12:37:22.894Z,112.50
2017-08-30T12:38:23.215Z,101.25
2017-08-30T12:39:22.967Z,90.00
2017-08-30T12:40:23.009Z,84.38
2017-08-30T12:41:23.092Z,78.75
2017-08-30T12:42:23.091Z,73.13
2017-08-30T12:43:23.108Z,73.13
2017-08-30T12:44:23.149Z,73.13
2017-08-30T12:45:23.485Z,73.13
2017-08-30T12:46:23.252Z,73.13
2017-08-30T12:47:23.290Z,78.75
2017-08-30T12:48:23.334Z,78.75
2017-08-30T12:49:23.351Z,78.75
2017-08-30T12:50:23.389Z,78.75
2017-08-30T12:51:23.461Z,78.75
2017-08-30T12:52:23.742Z,84.38
2017-08-30T12:53:23.545Z,90.00
2017-08-30T12:54:23.554Z,90.00
2017-08-30T12:55:23.644Z,90.00